sensor_id;sensor_type;location;lat;lon;timestamp;pressure;altitude;pressure_sealevel;temperature;humidity
64354;BME280;50681;53.334;-6.536;2023-02-07T00:01:32;103048.72;;;4.59;100.00
64354;BME280;50681;53.334;-6.536;2023-02-07T00:03:58;103051.50;;;4.66;100.00
64354;BME280;50681;53.334;-6.536;2023-02-07T00:06:35;103042.63;;;4.65;100.00
64354;BME280;50681;53.334;-6.536;2023-02-07T00:09:03;103050.03;;;4.63;100.00
64354;BME280;50681;53.334;-6.536;2023-02-07T00:11:29;103049.19;;;4.63;100.00
64354;BME280;50681;53.334;-6.536;2023-02-07T00:13:56;103029.56;;;4.55;100.00
64354;BME280;50681;53.334;-6.536;2023-02-07T00:16:22;103039.97;;;4.65;100.00
64354;BME280;50681;53.334;-6.536;2023-02-07T00:18:51;103048.34;;;4.77;100.00
64354;BME280;50681;53.334;-6.536;2023-02-07T00:21:19;103035.44;;;4.66;100.00
64354;BME280;50681;53.334;-6.536;2023-02-07T00:23:45;103054.72;;;4.76;100.00
64354;BME280;50681;53.334;-6.536;2023-02-07T00:26:16;103039.59;;;4.68;100.00
64354;BME280;50681;53.334;-6.536;2023-02-07T00:28:41;103041.88;;;4.71;100.00
64354;BME280;50681;53.334;-6.536;2023-02-07T00:31:09;103042.09;;;4.70;100.00
64354;BME280;50681;53.334;-6.536;2023-02-07T00:33:37;103042.72;;;4.72;100.00
64354;BME280;50681;53.334;-6.536;2023-02-07T00:36:07;103030.75;;;4.68;100.00
64354;BME280;50681;53.334;-6.536;2023-02-07T00:38:32;103043.09;;;4.69;100.00
64354;BME280;50681;53.334;-6.536;2023-02-07T00:40:58;103035.81;;;4.63;100.00
64354;BME280;50681;53.334;-6.536;2023-02-07T00:43:25;103044.94;;;4.68;100.00
64354;BME280;50681;53.334;-6.536;2023-02-07T00:45:52;103041.25;;;4.69;100.00
64354;BME280;50681;53.334;-6.536;2023-02-07T00:48:17;103041.50;;;4.75;100.00
64354;BME280;50681;53.334;-6.536;2023-02-07T00:50:42;103046.84;;;4.75;100.00
64354;BME280;50681;53.334;-6.536;2023-02-07T00:53:08;103048.16;;;4.79;100.00
64354;BME280;50681;53.334;-6.536;2023-02-07T00:55:33;103039.22;;;4.71;100.00
64354;BME280;50681;53.334;-6.536;2023-02-07T00:57:59;103033.22;;;4.69;100.00
64354;BME280;50681;53.334;-6.536;2023-02-07T01:00:24;103031.44;;;4.77;100.00
64354;BME280;50681;53.334;-6.536;2023-02-07T01:02:50;103049.25;;;4.84;100.00
64354;BME280;50681;53.334;-6.536;2023-02-07T01:05:15;103055.88;;;4.89;100.00
64354;BME280;50681;53.334;-6.536;2023-02-07T01:07:41;103043.31;;;4.89;100.00
64354;BME280;50681;53.334;-6.536;2023-02-07T01:10:07;103024.91;;;4.79;100.00
64354;BME280;50681;53.334;-6.536;2023-02-07T01:12:34;103026.94;;;4.77;100.00
64354;BME280;50681;53.334;-6.536;2023-02-07T01:14:59;103042.41;;;4.82;100.00
64354;BME280;50681;53.334;-6.536;2023-02-07T01:17:25;103051.94;;;4.84;100.00
64354;BME280;50681;53.334;-6.536;2023-02-07T01:19:55;103056.63;;;4.82;100.00
64354;BME280;50681;53.334;-6.536;2023-02-07T01:22:22;103037.91;;;4.67;100.00
64354;BME280;50681;53.334;-6.536;2023-02-07T01:24:47;103067.16;;;4.84;100.00
64354;BME280;50681;53.334;-6.536;2023-02-07T01:27:12;103061.34;;;4.80;100.00
64354;BME280;50681;53.334;-6.536;2023-02-07T01:29:46;103056.00;;;4.80;100.00
64354;BME280;50681;53.334;-6.536;2023-02-07T01:32:12;103066.34;;;4.83;100.00
64354;BME280;50681;53.334;-6.536;2023-02-07T01:34:37;103046.22;;;4.73;100.00
64354;BME280;50681;53.334;-6.536;2023-02-07T01:37:03;103062.00;;;4.82;100.00
64354;BME280;50681;53.334;-6.536;2023-02-07T01:39:28;103024.84;;;4.58;100.00
64354;BME280;50681;53.334;-6.536;2023-02-07T01:41:54;103031.50;;;4.62;100.00
64354;BME280;50681;53.334;-6.536;2023-02-07T01:46:50;103043.47;;;4.66;100.00
64354;BME280;50681;53.334;-6.536;2023-02-07T01:49:18;103036.38;;;4.58;100.00
64354;BME280;50681;53.334;-6.536;2023-02-07T01:51:52;103055.25;;;4.71;100.00
64354;BME280;50681;53.334;-6.536;2023-02-07T01:54:19;103058.31;;;4.68;100.00
64354;BME280;50681;53.334;-6.536;2023-02-07T01:56:52;103057.50;;;4.68;100.00
64354;BME280;50681;53.334;-6.536;2023-02-07T01:59:20;103056.22;;;4.64;100.00
64354;BME280;50681;53.334;-6.536;2023-02-07T02:01:46;103042.03;;;4.48;100.00
64354;BME280;50681;53.334;-6.536;2023-02-07T02:04:12;103055.03;;;4.51;100.00
64354;BME280;50681;53.334;-6.536;2023-02-07T02:06:39;103054.66;;;4.54;100.00
64354;BME280;50681;53.334;-6.536;2023-02-07T02:09:11;103049.03;;;4.49;100.00
64354;BME280;50681;53.334;-6.536;2023-02-07T02:17:32;103080.41;;;4.55;100.00
64354;BME280;50681;53.334;-6.536;2023-02-07T02:22:57;103087.47;;;4.63;100.00
64354;BME280;50681;53.334;-6.536;2023-02-07T02:34:01;103092.34;;;4.75;100.00
64354;BME280;50681;53.334;-6.536;2023-02-07T02:39:12;103085.56;;;4.72;100.00
64354;BME280;50681;53.334;-6.536;2023-02-07T02:44:39;103061.94;;;4.61;100.00
64354;BME280;50681;53.334;-6.536;2023-02-07T02:47:07;103079.81;;;4.75;100.00
64354;BME280;50681;53.334;-6.536;2023-02-07T02:49:35;103068.91;;;4.77;100.00
64354;BME280;50681;53.334;-6.536;2023-02-07T02:52:02;103033.69;;;4.58;100.00
64354;BME280;50681;53.334;-6.536;2023-02-07T02:54:33;103058.41;;;4.75;100.00
64354;BME280;50681;53.334;-6.536;2023-02-07T03:07:47;103065.75;;;4.88;100.00
64354;BME280;50681;53.334;-6.536;2023-02-07T03:18:19;103056.84;;;4.66;100.00
64354;BME280;50681;53.334;-6.536;2023-02-07T03:20:55;103059.44;;;4.59;100.00
64354;BME280;50681;53.334;-6.536;2023-02-07T03:23:23;103054.47;;;4.56;100.00
64354;BME280;50681;53.334;-6.536;2023-02-07T03:25:50;103055.19;;;4.50;100.00
64354;BME280;50681;53.334;-6.536;2023-02-07T03:28:17;103037.84;;;4.46;100.00
64354;BME280;50681;53.334;-6.536;2023-02-07T03:30:44;103050.06;;;4.48;100.00
64354;BME280;50681;53.334;-6.536;2023-02-07T03:33:14;103058.63;;;4.59;100.00
64354;BME280;50681;53.334;-6.536;2023-02-07T03:38:19;103050.31;;;4.53;100.00
64354;BME280;50681;53.334;-6.536;2023-02-07T03:40:48;103061.47;;;4.57;100.00
64354;BME280;50681;53.334;-6.536;2023-02-07T03:43:36;103045.25;;;4.44;100.00
64354;BME280;50681;53.334;-6.536;2023-02-07T03:46:03;103066.00;;;4.56;100.00
64354;BME280;50681;53.334;-6.536;2023-02-07T03:48:33;103025.69;;;4.28;100.00
64354;BME280;50681;53.334;-6.536;2023-02-07T03:50:59;103038.91;;;4.30;100.00
64354;BME280;50681;53.334;-6.536;2023-02-07T03:53:28;103050.03;;;4.33;100.00
64354;BME280;50681;53.334;-6.536;2023-02-07T03:55:59;103076.97;;;4.47;100.00
64354;BME280;50681;53.334;-6.536;2023-02-07T03:58:28;103043.41;;;4.29;100.00
64354;BME280;50681;53.334;-6.536;2023-02-07T04:01:02;103047.56;;;4.32;100.00
64354;BME280;50681;53.334;-6.536;2023-02-07T04:03:30;103047.38;;;4.33;100.00
64354;BME280;50681;53.334;-6.536;2023-02-07T04:05:55;103074.03;;;4.56;100.00
64354;BME280;50681;53.334;-6.536;2023-02-07T04:08:21;103066.06;;;4.63;100.00
64354;BME280;50681;53.334;-6.536;2023-02-07T04:10:56;103061.84;;;4.69;100.00
64354;BME280;50681;53.334;-6.536;2023-02-07T04:13:22;103063.75;;;4.75;100.00
64354;BME280;50681;53.334;-6.536;2023-02-07T04:15:50;103037.28;;;4.65;100.00
64354;BME280;50681;53.334;-6.536;2023-02-07T04:18:19;103034.22;;;4.68;100.00
64354;BME280;50681;53.334;-6.536;2023-02-07T04:20:45;103049.00;;;4.79;100.00
64354;BME280;50681;53.334;-6.536;2023-02-07T04:23:11;103048.16;;;4.79;100.00
64354;BME280;50681;53.334;-6.536;2023-02-07T04:25:37;103052.41;;;4.73;100.00
64354;BME280;50681;53.334;-6.536;2023-02-07T04:28:05;103033.53;;;4.60;100.00
64354;BME280;50681;53.334;-6.536;2023-02-07T04:30:32;103049.00;;;4.64;100.00
64354;BME280;50681;53.334;-6.536;2023-02-07T04:32:58;103049.19;;;4.63;100.00
64354;BME280;50681;53.334;-6.536;2023-02-07T04:35:26;103053.28;;;4.59;100.00
64354;BME280;50681;53.334;-6.536;2023-02-07T04:37:51;103021.75;;;4.39;100.00
64354;BME280;50681;53.334;-6.536;2023-02-07T04:40:17;103010.50;;;4.29;100.00
64354;BME280;50681;53.334;-6.536;2023-02-07T04:42:42;103059.00;;;4.55;100.00
64354;BME280;50681;53.334;-6.536;2023-02-07T04:45:10;103020.44;;;4.35;100.00
64354;BME280;50681;53.334;-6.536;2023-02-07T04:47:36;103031.50;;;4.47;100.00
64354;BME280;50681;53.334;-6.536;2023-02-07T04:50:02;103012.50;;;4.41;100.00
64354;BME280;50681;53.334;-6.536;2023-02-07T04:52:28;103055.53;;;4.77;100.00
64354;BME280;50681;53.334;-6.536;2023-02-07T04:54:53;103038.13;;;4.66;100.00
64354;BME280;50681;53.334;-6.536;2023-02-07T04:57:19;103044.81;;;4.77;100.00
64354;BME280;50681;53.334;-6.536;2023-02-07T04:59:44;103066.28;;;4.98;100.00
64354;BME280;50681;53.334;-6.536;2023-02-07T05:02:12;103060.38;;;5.03;100.00
64354;BME280;50681;53.334;-6.536;2023-02-07T05:04:38;103041.16;;;4.99;100.00
64354;BME280;50681;53.334;-6.536;2023-02-07T05:07:03;103057.56;;;5.11;100.00
64354;BME280;50681;53.334;-6.536;2023-02-07T05:09:29;103045.75;;;5.06;100.00
64354;BME280;50681;53.334;-6.536;2023-02-07T05:12:00;103064.53;;;5.27;100.00
64354;BME280;50681;53.334;-6.536;2023-02-07T05:14:25;103044.44;;;5.17;100.00
64354;BME280;50681;53.334;-6.536;2023-02-07T05:16:54;103060.00;;;5.28;100.00
64354;BME280;50681;53.334;-6.536;2023-02-07T05:19:25;103062.69;;;5.28;100.00
64354;BME280;50681;53.334;-6.536;2023-02-07T05:21:50;103080.09;;;5.39;100.00
64354;BME280;50681;53.334;-6.536;2023-02-07T05:24:16;103035.78;;;5.14;100.00
64354;BME280;50681;53.334;-6.536;2023-02-07T05:26:41;103069.28;;;5.32;100.00
64354;BME280;50681;53.334;-6.536;2023-02-07T05:29:07;103063.13;;;5.32;100.00
64354;BME280;50681;53.334;-6.536;2023-02-07T05:31:32;103075.81;;;5.44;100.00
64354;BME280;50681;53.334;-6.536;2023-02-07T05:34:16;103069.81;;;5.42;100.00
64354;BME280;50681;53.334;-6.536;2023-02-07T05:36:42;103068.59;;;5.45;100.00
64354;BME280;50681;53.334;-6.536;2023-02-07T05:39:07;103060.75;;;5.43;100.00
64354;BME280;50681;53.334;-6.536;2023-02-07T05:41:33;103049.09;;;5.29;100.00
64354;BME280;50681;53.334;-6.536;2023-02-07T05:44:01;103082.03;;;5.52;100.00
64354;BME280;50681;53.334;-6.536;2023-02-07T05:46:27;103075.66;;;5.53;100.00
64354;BME280;50681;53.334;-6.536;2023-02-07T05:48:52;103059.72;;;5.44;100.00
64354;BME280;50681;53.334;-6.536;2023-02-07T05:51:20;103078.56;;;5.51;100.00
64354;BME280;50681;53.334;-6.536;2023-02-07T05:53:46;103068.84;;;5.50;100.00
64354;BME280;50681;53.334;-6.536;2023-02-07T05:56:11;103068.66;;;5.52;100.00
64354;BME280;50681;53.334;-6.536;2023-02-07T05:58:39;103042.97;;;5.36;100.00
64354;BME280;50681;53.334;-6.536;2023-02-07T06:01:05;103065.28;;;5.43;100.00
64354;BME280;50681;53.334;-6.536;2023-02-07T06:03:30;103049.38;;;5.41;100.00
64354;BME280;50681;53.334;-6.536;2023-02-07T06:05:56;103084.41;;;5.62;100.00
64354;BME280;50681;53.334;-6.536;2023-02-07T06:08:24;103074.50;;;5.62;100.00
64354;BME280;50681;53.334;-6.536;2023-02-07T06:10:50;103066.59;;;5.54;100.00
64354;BME280;50681;53.334;-6.536;2023-02-07T06:13:16;103064.78;;;5.54;100.00
64354;BME280;50681;53.334;-6.536;2023-02-07T06:15:50;103072.22;;;5.59;100.00
64354;BME280;50681;53.334;-6.536;2023-02-07T06:18:18;103058.56;;;5.54;100.00
64354;BME280;50681;53.334;-6.536;2023-02-07T06:20:51;103052.00;;;5.56;100.00
64354;BME280;50681;53.334;-6.536;2023-02-07T06:23:17;103075.78;;;5.66;100.00
64354;BME280;50681;53.334;-6.536;2023-02-07T06:25:45;103045.94;;;5.48;100.00
64354;BME280;50681;53.334;-6.536;2023-02-07T06:28:10;103043.50;;;5.53;100.00
64354;BME280;50681;53.334;-6.536;2023-02-07T06:30:36;103071.06;;;5.68;100.00
64354;BME280;50681;53.334;-6.536;2023-02-07T06:33:02;103054.47;;;5.58;100.00
64354;BME280;50681;53.334;-6.536;2023-02-07T06:35:28;103069.59;;;5.66;100.00
64354;BME280;50681;53.334;-6.536;2023-02-07T06:37:53;103073.34;;;5.71;100.00
64354;BME280;50681;53.334;-6.536;2023-02-07T06:40:19;103086.19;;;5.76;100.00
64354;BME280;50681;53.334;-6.536;2023-02-07T06:42:44;103082.66;;;5.76;100.00
64354;BME280;50681;53.334;-6.536;2023-02-07T06:45:10;103065.44;;;5.63;100.00
64354;BME280;50681;53.334;-6.536;2023-02-07T06:47:35;103066.72;;;5.67;100.00
64354;BME280;50681;53.334;-6.536;2023-02-07T06:50:01;103088.88;;;5.76;100.00
64354;BME280;50681;53.334;-6.536;2023-02-07T06:52:26;103067.56;;;5.68;100.00
64354;BME280;50681;53.334;-6.536;2023-02-07T06:54:52;103088.66;;;5.78;100.00
64354;BME280;50681;53.334;-6.536;2023-02-07T06:57:17;103055.13;;;5.60;100.00
64354;BME280;50681;53.334;-6.536;2023-02-07T06:59:42;103074.84;;;5.74;100.00
64354;BME280;50681;53.334;-6.536;2023-02-07T07:02:10;103074.44;;;5.77;100.00
64354;BME280;50681;53.334;-6.536;2023-02-07T07:04:36;103083.31;;;5.78;100.00
64354;BME280;50681;53.334;-6.536;2023-02-07T07:07:01;103075.47;;;5.76;100.00
64354;BME280;50681;53.334;-6.536;2023-02-07T07:09:27;103077.31;;;5.76;100.00
64354;BME280;50681;53.334;-6.536;2023-02-07T07:11:52;103080.59;;;5.71;100.00
64354;BME280;50681;53.334;-6.536;2023-02-07T07:14:18;103051.53;;;5.53;100.00
64354;BME280;50681;53.334;-6.536;2023-02-07T07:16:44;103073.25;;;5.58;100.00
64354;BME280;50681;53.334;-6.536;2023-02-07T07:19:09;103081.03;;;5.53;100.00
64354;BME280;50681;53.334;-6.536;2023-02-07T07:21:34;103071.78;;;5.34;100.00
64354;BME280;50681;53.334;-6.536;2023-02-07T07:24:00;103086.00;;;5.34;100.00
64354;BME280;50681;53.334;-6.536;2023-02-07T07:26:25;103074.16;;;5.22;100.00
64354;BME280;50681;53.334;-6.536;2023-02-07T07:28:51;103086.97;;;5.26;100.00
64354;BME280;50681;53.334;-6.536;2023-02-07T07:31:22;103070.75;;;5.13;100.00
64354;BME280;50681;53.334;-6.536;2023-02-07T07:33:48;103085.63;;;5.15;100.00
64354;BME280;50681;53.334;-6.536;2023-02-07T07:36:13;103059.59;;;4.88;100.00
64354;BME280;50681;53.334;-6.536;2023-02-07T07:38:39;103057.28;;;4.84;100.00
64354;BME280;50681;53.334;-6.536;2023-02-07T07:41:04;103067.34;;;4.82;100.00
64354;BME280;50681;53.334;-6.536;2023-02-07T07:43:30;103093.16;;;4.90;100.00
64354;BME280;50681;53.334;-6.536;2023-02-07T07:45:56;103073.81;;;4.73;100.00
64354;BME280;50681;53.334;-6.536;2023-02-07T07:48:24;103105.84;;;4.81;100.00
64354;BME280;50681;53.334;-6.536;2023-02-07T07:50:50;103106.22;;;4.78;100.00
64354;BME280;50681;53.334;-6.536;2023-02-07T07:53:16;103090.63;;;4.67;100.00
64354;BME280;50681;53.334;-6.536;2023-02-07T07:55:47;103099.41;;;4.61;100.00
64354;BME280;50681;53.334;-6.536;2023-02-07T07:58:13;103115.84;;;4.58;100.00
64354;BME280;50681;53.334;-6.536;2023-02-07T08:00:39;103101.41;;;4.44;100.00
64354;BME280;50681;53.334;-6.536;2023-02-07T08:03:04;103130.03;;;4.58;100.00
64354;BME280;50681;53.334;-6.536;2023-02-07T08:05:29;103095.78;;;4.38;100.00
64354;BME280;50681;53.334;-6.536;2023-02-07T08:07:55;103120.16;;;4.59;100.00
64354;BME280;50681;53.334;-6.536;2023-02-07T08:10:21;103108.16;;;4.54;100.00
64354;BME280;50681;53.334;-6.536;2023-02-07T08:12:46;103119.97;;;4.60;100.00
64354;BME280;50681;53.334;-6.536;2023-02-07T08:15:11;103115.09;;;4.64;100.00
64354;BME280;50681;53.334;-6.536;2023-02-07T08:17:38;103126.78;;;4.78;100.00
64354;BME280;50681;53.334;-6.536;2023-02-07T08:20:04;103124.47;;;4.90;100.00
64354;BME280;50681;53.334;-6.536;2023-02-07T08:22:29;103119.88;;;4.83;100.00
64354;BME280;50681;53.334;-6.536;2023-02-07T08:24:56;103128.25;;;4.95;100.00
64354;BME280;50681;53.334;-6.536;2023-02-07T08:27:22;103115.06;;;4.94;100.00
64354;BME280;50681;53.334;-6.536;2023-02-07T08:29:47;103132.47;;;5.05;100.00
64354;BME280;50681;53.334;-6.536;2023-02-07T08:32:13;103120.56;;;5.07;100.00
64354;BME280;50681;53.334;-6.536;2023-02-07T08:34:39;103126.75;;;5.08;100.00
64354;BME280;50681;53.334;-6.536;2023-02-07T08:37:07;103120.19;;;5.10;100.00
64354;BME280;50681;53.334;-6.536;2023-02-07T08:39:40;103142.03;;;5.29;100.00
64354;BME280;50681;53.334;-6.536;2023-02-07T08:42:07;103141.63;;;5.32;100.00
64354;BME280;50681;53.334;-6.536;2023-02-07T08:44:33;103127.38;;;5.25;100.00
64354;BME280;50681;53.334;-6.536;2023-02-07T08:46:59;103119.13;;;5.26;100.00
64354;BME280;50681;53.334;-6.536;2023-02-07T08:49:25;103126.19;;;5.34;100.00
64354;BME280;50681;53.334;-6.536;2023-02-07T08:51:50;103127.09;;;5.41;100.00
64354;BME280;50681;53.334;-6.536;2023-02-07T08:54:17;103141.91;;;5.59;100.00
64354;BME280;50681;53.334;-6.536;2023-02-07T08:56:43;103125.19;;;5.57;100.00
64354;BME280;50681;53.334;-6.536;2023-02-07T08:59:08;103118.81;;;5.58;100.00
64354;BME280;50681;53.334;-6.536;2023-02-07T09:01:36;103147.09;;;5.82;100.00
64354;BME280;50681;53.334;-6.536;2023-02-07T09:04:02;103141.25;;;5.79;100.00
64354;BME280;50681;53.334;-6.536;2023-02-07T09:06:31;103128.69;;;5.79;100.00
64354;BME280;50681;53.334;-6.536;2023-02-07T09:08:57;103142.84;;;5.95;100.00
64354;BME280;50681;53.334;-6.536;2023-02-07T09:11:23;103134.44;;;5.98;100.00
64354;BME280;50681;53.334;-6.536;2023-02-07T09:13:48;103114.56;;;5.92;100.00
64354;BME280;50681;53.334;-6.536;2023-02-07T09:16:14;103129.97;;;6.05;100.00
64354;BME280;50681;53.334;-6.536;2023-02-07T09:18:40;103155.91;;;6.26;100.00
64354;BME280;50681;53.334;-6.536;2023-02-07T09:21:06;103138.13;;;6.18;100.00
64354;BME280;50681;53.334;-6.536;2023-02-07T09:23:32;103146.84;;;6.27;100.00
64354;BME280;50681;53.334;-6.536;2023-02-07T09:26:02;103123.03;;;6.17;100.00
64354;BME280;50681;53.334;-6.536;2023-02-07T09:28:29;103142.56;;;6.33;100.00
64354;BME280;50681;53.334;-6.536;2023-02-07T09:30:54;103157.31;;;6.51;100.00
64354;BME280;50681;53.334;-6.536;2023-02-07T09:33:20;103161.06;;;6.56;100.00
64354;BME280;50681;53.334;-6.536;2023-02-07T09:35:48;103154.09;;;6.62;100.00
64354;BME280;50681;53.334;-6.536;2023-02-07T09:38:17;103163.41;;;6.66;100.00
64354;BME280;50681;53.334;-6.536;2023-02-07T09:40:44;103156.16;;;6.67;100.00
64354;BME280;50681;53.334;-6.536;2023-02-07T09:43:35;103175.03;;;6.80;100.00
64354;BME280;50681;53.334;-6.536;2023-02-07T09:46:14;103163.91;;;6.83;100.00
64354;BME280;50681;53.334;-6.536;2023-02-07T09:48:45;103161.66;;;6.94;100.00
64354;BME280;50681;53.334;-6.536;2023-02-07T09:51:12;103156.69;;;6.90;100.00
64354;BME280;50681;53.334;-6.536;2023-02-07T09:53:43;103154.47;;;6.94;100.00
64354;BME280;50681;53.334;-6.536;2023-02-07T09:56:13;103155.31;;;7.08;100.00
64354;BME280;50681;53.334;-6.536;2023-02-07T09:58:45;103151.03;;;7.14;100.00
64354;BME280;50681;53.334;-6.536;2023-02-07T10:01:27;103177.13;;;7.33;100.00
64354;BME280;50681;53.334;-6.536;2023-02-07T10:06:31;103166.38;;;7.33;100.00
64354;BME280;50681;53.334;-6.536;2023-02-07T10:08:59;103155.81;;;7.32;100.00
64354;BME280;50681;53.334;-6.536;2023-02-07T10:22:41;103177.19;;;7.67;100.00
64354;BME280;50681;53.334;-6.536;2023-02-07T10:30:35;103172.44;;;7.83;100.00
64354;BME280;50681;53.334;-6.536;2023-02-07T10:33:13;103169.78;;;7.89;100.00
64354;BME280;50681;53.334;-6.536;2023-02-07T10:35:39;103185.50;;;7.99;100.00
64354;BME280;50681;53.334;-6.536;2023-02-07T10:38:28;103169.38;;;7.92;100.00
64354;BME280;50681;53.334;-6.536;2023-02-07T10:41:02;103148.88;;;7.85;100.00
64354;BME280;50681;53.334;-6.536;2023-02-07T10:43:29;103176.38;;;8.07;100.00
64354;BME280;50681;53.334;-6.536;2023-02-07T10:46:02;103182.59;;;8.21;100.00
64354;BME280;50681;53.334;-6.536;2023-02-07T10:48:55;103133.97;;;7.89;100.00
64354;BME280;50681;53.334;-6.536;2023-02-07T10:51:50;103150.94;;;8.09;100.00
64354;BME280;50681;53.334;-6.536;2023-02-07T10:57:18;103177.63;;;8.31;100.00
64354;BME280;50681;53.334;-6.536;2023-02-07T10:59:45;103146.56;;;8.22;100.00
64354;BME280;50681;53.334;-6.536;2023-02-07T11:02:37;103175.09;;;8.43;100.00
64354;BME280;50681;53.334;-6.536;2023-02-07T11:05:28;103158.97;;;8.43;100.00
64354;BME280;50681;53.334;-6.536;2023-02-07T11:10:36;103156.25;;;8.57;100.00
64354;BME280;50681;53.334;-6.536;2023-02-07T11:13:05;103138.69;;;8.54;100.00
64354;BME280;50681;53.334;-6.536;2023-02-07T11:24:07;103171.53;;;8.83;100.00
64354;BME280;50681;53.334;-6.536;2023-02-07T11:26:39;103162.59;;;8.89;100.00
64354;BME280;50681;53.334;-6.536;2023-02-07T11:29:18;103126.78;;;8.75;100.00
64354;BME280;50681;53.334;-6.536;2023-02-07T11:31:59;103160.28;;;9.00;100.00
64354;BME280;50681;53.334;-6.536;2023-02-07T11:34:44;103155.09;;;8.98;100.00
64354;BME280;50681;53.334;-6.536;2023-02-07T11:39:52;103127.66;;;9.15;100.00
64354;BME280;50681;53.334;-6.536;2023-02-07T11:42:35;103129.72;;;9.19;100.00
64354;BME280;50681;53.334;-6.536;2023-02-07T11:45:20;103157.75;;;9.50;100.00
64354;BME280;50681;53.334;-6.536;2023-02-07T11:47:48;103145.31;;;9.43;100.00
64354;BME280;50681;53.334;-6.536;2023-02-07T11:50:24;103153.56;;;9.54;100.00
64354;BME280;50681;53.334;-6.536;2023-02-07T11:52:54;103173.50;;;9.53;100.00
64354;BME280;50681;53.334;-6.536;2023-02-07T11:55:23;103138.66;;;9.13;100.00
64354;BME280;50681;53.334;-6.536;2023-02-07T11:57:56;103155.09;;;9.05;100.00
64354;BME280;50681;53.334;-6.536;2023-02-07T12:00:26;103167.47;;;9.12;100.00
64354;BME280;50681;53.334;-6.536;2023-02-07T12:03:13;103166.03;;;9.10;100.00
64354;BME280;50681;53.334;-6.536;2023-02-07T12:05:42;103145.78;;;9.01;100.00
64354;BME280;50681;53.334;-6.536;2023-02-07T12:08:21;103180.06;;;9.25;100.00
64354;BME280;50681;53.334;-6.536;2023-02-07T12:11:03;103185.16;;;9.40;100.00
64354;BME280;50681;53.334;-6.536;2023-02-07T12:13:52;103146.06;;;9.24;100.00
64354;BME280;50681;53.334;-6.536;2023-02-07T12:16:35;103168.09;;;9.53;100.00
64354;BME280;50681;53.334;-6.536;2023-02-07T12:19:18;103181.41;;;9.48;100.00
64354;BME280;50681;53.334;-6.536;2023-02-07T12:24:35;103161.03;;;9.52;100.00
64354;BME280;50681;53.334;-6.536;2023-02-07T12:32:36;103138.00;;;9.18;100.00
64354;BME280;50681;53.334;-6.536;2023-02-07T12:35:32;103168.59;;;9.37;100.00
64354;BME280;50681;53.334;-6.536;2023-02-07T12:38:41;103180.19;;;9.44;100.00
64354;BME280;50681;53.334;-6.536;2023-02-07T12:44:05;103168.59;;;9.37;100.00
64354;BME280;50681;53.334;-6.536;2023-02-07T12:46:44;103134.63;;;9.29;100.00
64354;BME280;50681;53.334;-6.536;2023-02-07T12:52:17;103158.72;;;9.56;100.00
64354;BME280;50681;53.334;-6.536;2023-02-07T12:55:11;103129.13;;;9.49;100.00
64354;BME280;50681;53.334;-6.536;2023-02-07T12:57:49;103151.31;;;9.51;100.00
64354;BME280;50681;53.334;-6.536;2023-02-07T13:00:28;103158.88;;;9.68;100.00
64354;BME280;50681;53.334;-6.536;2023-02-07T13:08:53;103151.31;;;9.77;100.00
64354;BME280;50681;53.334;-6.536;2023-02-07T13:15:14;103147.72;;;9.58;100.00
64354;BME280;50681;53.334;-6.536;2023-02-07T13:18:48;103138.19;;;9.55;100.00
64354;BME280;50681;53.334;-6.536;2023-02-07T13:23:21;103139.47;;;9.52;100.00
64354;BME280;50681;53.334;-6.536;2023-02-07T13:25:53;103129.97;;;9.43;100.00
64354;BME280;50681;53.334;-6.536;2023-02-07T13:28:27;103140.25;;;9.60;100.00
64354;BME280;50681;53.334;-6.536;2023-02-07T13:30:57;103109.84;;;9.46;100.00
64354;BME280;50681;53.334;-6.536;2023-02-07T13:33:26;103126.09;;;9.64;100.00
64354;BME280;50681;53.334;-6.536;2023-02-07T13:35:57;103129.66;;;9.58;100.00
64354;BME280;50681;53.334;-6.536;2023-02-07T13:39:06;103110.22;;;9.49;100.00
64354;BME280;50681;53.334;-6.536;2023-02-07T13:44:30;103109.53;;;9.61;100.00
64354;BME280;50681;53.334;-6.536;2023-02-07T13:56:29;103081.63;;;9.48;100.00
64354;BME280;50681;53.334;-6.536;2023-02-07T13:59:34;103088.00;;;9.54;100.00
64354;BME280;50681;53.334;-6.536;2023-02-07T14:02:29;103077.97;;;9.61;100.00
64354;BME280;50681;53.334;-6.536;2023-02-07T14:05:07;103084.97;;;9.69;100.00
64354;BME280;50681;53.334;-6.536;2023-02-07T14:07:36;103085.47;;;9.59;100.00
64354;BME280;50681;53.334;-6.536;2023-02-07T14:10:04;103080.06;;;9.34;100.00
64354;BME280;50681;53.334;-6.536;2023-02-07T14:12:39;103082.75;;;9.34;100.00
64354;BME280;50681;53.334;-6.536;2023-02-07T14:23:12;103064.31;;;9.56;100.00
64354;BME280;50681;53.334;-6.536;2023-02-07T14:25:40;103082.00;;;9.77;100.00
64354;BME280;50681;53.334;-6.536;2023-02-07T14:33:39;103074.38;;;9.93;100.00
64354;BME280;50681;53.334;-6.536;2023-02-07T14:41:41;103084.47;;;10.04;100.00
64354;BME280;50681;53.334;-6.536;2023-02-07T14:44:38;103103.06;;;10.12;100.00
64354;BME280;50681;53.334;-6.536;2023-02-07T14:47:07;103067.34;;;9.92;100.00
64354;BME280;50681;53.334;-6.536;2023-02-07T14:49:45;103087.44;;;9.96;100.00
64354;BME280;50681;53.334;-6.536;2023-02-07T14:52:22;103106.81;;;10.11;100.00
64354;BME280;50681;53.334;-6.536;2023-02-07T14:54:55;103101.63;;;10.10;100.00
64354;BME280;50681;53.334;-6.536;2023-02-07T15:05:19;103088.03;;;9.98;100.00
64354;BME280;50681;53.334;-6.536;2023-02-07T15:07:47;103081.00;;;9.97;100.00
64354;BME280;50681;53.334;-6.536;2023-02-07T15:13:04;103090.50;;;9.99;100.00
64354;BME280;50681;53.334;-6.536;2023-02-07T15:15:43;103095.31;;;9.97;100.00
64354;BME280;50681;53.334;-6.536;2023-02-07T15:18:15;103075.44;;;9.92;100.00
64354;BME280;50681;53.334;-6.536;2023-02-07T15:20:47;103095.09;;;9.99;100.00
64354;BME280;50681;53.334;-6.536;2023-02-07T15:23:14;103086.84;;;9.94;100.00
64354;BME280;50681;53.334;-6.536;2023-02-07T15:25:42;103084.59;;;9.91;100.00